Time;durP1;ratioP1;P1;durP2;ratioP2;P2;SDS_P1;SDS_P2;PMS_P1;PMS_P2;Temp;Humidity;BMP_temperature;BMP_pressure;BME280_temperature;BME280_humidity;BME280_pressure;Samples;Min_cycle;Max_cycle;Signal;HPM_P1;HPM_P2
2021/11/05 00:00:30;;;;;;;10.05;7.72;;;7.00;99.90;;;;;;5048248;28;20123;-73
2021/11/05 00:02:57;;;;;;;8.23;7.32;;;7.00;99.90;;;;;;5066517;28;20044;-73
2021/11/05 00:05:24;;;;;;;10.77;8.70;;;6.90;99.90;;;;;;5063927;28;20016;-74
2021/11/05 00:07:49;;;;;;;7.90;6.80;;;6.90;99.90;;;;;;5075086;28;20024;-73
2021/11/05 00:10:17;;;;;;;10.10;6.65;;;6.90;99.90;;;;;;5059899;28;20383;-76
2021/11/05 00:12:44;;;;;;;6.93;6.32;;;6.90;99.90;;;;;;5054821;28;20028;-73
2021/11/05 00:15:09;;;;;;;6.95;6.10;;;6.90;99.90;;;;;;5037149;28;20488;-72
2021/11/05 00:17:35;;;;;;;9.27;6.63;;;6.90;99.90;;;;;;5059643;28;20108;-74
2021/11/05 00:20:01;;;;;;;7.70;5.90;;;7.00;99.90;;;;;;5068382;28;20028;-73
2021/11/05 00:22:26;;;;;;;8.73;5.95;;;6.90;99.90;;;;;;5056786;28;20013;-74
2021/11/05 00:24:52;;;;;;;8.65;6.00;;;6.90;99.90;;;;;;5062821;28;20033;-73
2021/11/05 00:27:17;;;;;;;6.90;5.80;;;6.90;99.90;;;;;;5054762;28;20021;-73
2021/11/05 00:29:43;;;;;;;8.68;5.47;;;6.90;99.90;;;;;;5054701;28;20033;-73
2021/11/05 00:32:10;;;;;;;7.15;5.38;;;6.90;99.90;;;;;;5054430;28;20154;-72
2021/11/05 00:34:35;;;;;;;6.93;5.40;;;6.90;99.90;;;;;;5054770;28;20047;-72
2021/11/05 00:37:02;;;;;;;6.05;5.40;;;7.00;99.90;;;;;;5043659;28;20496;-73
2021/11/05 00:39:27;;;;;;;6.88;5.53;;;7.00;99.90;;;;;;5054897;28;20032;-72
2021/11/05 00:41:53;;;;;;;7.68;4.88;;;7.00;99.90;;;;;;5073598;28;20044;-73
2021/11/05 00:44:18;;;;;;;5.35;4.28;;;7.00;99.90;;;;;;5073511;28;20040;-76
2021/11/05 00:46:44;;;;;;;8.00;5.22;;;7.00;99.90;;;;;;5073048;28;20111;-73
2021/11/05 00:49:10;;;;;;;6.03;4.60;;;7.00;99.90;;;;;;5074546;28;20031;-72
2021/11/05 00:51:36;;;;;;;5.13;4.25;;;7.00;99.90;;;;;;5069485;28;20017;-73
2021/11/05 00:54:01;;;;;;;6.45;4.45;;;7.00;99.90;;;;;;5036128;28;20068;-73
2021/11/05 00:56:27;;;;;;;5.65;4.32;;;7.10;99.90;;;;;;5054476;28;20477;-76
2021/11/05 00:58:52;;;;;;;5.15;4.38;;;7.10;99.90;;;;;;5054267;28;20078;-73
2021/11/05 01:01:18;;;;;;;6.63;4.00;;;7.10;99.90;;;;;;5054055;28;20104;-74
2021/11/05 01:03:44;;;;;;;5.05;4.07;;;7.00;99.90;;;;;;5058489;28;20029;-73
2021/11/05 01:06:09;;;;;;;5.72;4.70;;;7.10;99.90;;;;;;5055929;28;20029;-72
2021/11/05 01:08:35;;;;;;;6.10;4.55;;;7.10;99.90;;;;;;5074085;28;20028;-72
2021/11/05 01:11:00;;;;;;;6.43;4.03;;;7.10;99.90;;;;;;5056158;28;20021;-73
2021/11/05 01:13:26;;;;;;;7.68;4.72;;;7.10;99.90;;;;;;5073715;28;20032;-72
2021/11/05 01:15:52;;;;;;;4.53;4.05;;;7.10;99.90;;;;;;5055999;28;20044;-75
2021/11/05 01:18:20;;;;;;;7.15;3.60;;;7.10;99.90;;;;;;5073832;28;20081;-72
2021/11/05 01:20:45;;;;;;;4.65;3.50;;;7.10;99.90;;;;;;5073629;28;20025;-72
2021/11/05 01:23:11;;;;;;;5.47;3.42;;;7.10;99.90;;;;;;5073681;28;20048;-73
2021/11/05 01:25:38;;;;;;;4.22;3.25;;;7.10;99.90;;;;;;5074057;28;20028;-72
2021/11/05 01:28:03;;;;;;;3.65;3.10;;;7.10;99.90;;;;;;5073391;28;20020;-73
2021/11/05 01:30:29;;;;;;;3.85;3.42;;;7.10;99.90;;;;;;5055884;28;20025;-73
2021/11/05 01:32:55;;;;;;;6.18;4.45;;;7.10;99.90;;;;;;5073246;28;20074;-73
2021/11/05 01:35:21;;;;;;;4.35;3.50;;;7.10;99.90;;;;;;5055849;28;20035;-74
2021/11/05 01:37:47;;;;;;;4.20;3.78;;;7.10;99.90;;;;;;5073432;28;20020;-72
2021/11/05 01:40:14;;;;;;;4.38;3.97;;;7.10;99.90;;;;;;5073309;28;20039;-73
2021/11/05 01:42:40;;;;;;;8.43;4.03;;;7.00;99.90;;;;;;5073090;28;20035;-73
2021/11/05 01:45:07;;;;;;;5.32;3.85;;;7.00;99.90;;;;;;5072684;28;20024;-74
2021/11/05 01:47:33;;;;;;;4.68;4.18;;;7.00;99.90;;;;;;5073598;28;20019;-73
2021/11/05 01:49:59;;;;;;;5.55;4.30;;;7.00;99.90;;;;;;5072947;28;20431;-73
2021/11/05 01:52:25;;;;;;;4.35;3.95;;;6.90;99.90;;;;;;5073569;28;20024;-72
2021/11/05 01:54:52;;;;;;;7.35;4.65;;;6.90;99.90;;;;;;5073151;28;20036;-74
2021/11/05 01:57:18;;;;;;;6.60;4.30;;;6.90;99.90;;;;;;5054849;28;20119;-73
2021/11/05 01:59:52;;;;;;;7.45;4.40;;;6.90;99.90;;;;;;5072960;28;20116;-73
2021/11/05 02:02:18;;;;;;;6.57;4.50;;;6.90;99.90;;;;;;5072655;28;20401;-73
2021/11/05 02:04:44;;;;;;;5.15;4.38;;;6.90;99.90;;;;;;5073008;28;20031;-73
2021/11/05 02:07:11;;;;;;;4.68;4.10;;;6.90;99.90;;;;;;5072845;28;20021;-73
2021/11/05 02:09:38;;;;;;;4.53;3.95;;;6.90;99.90;;;;;;5072859;28;20021;-73
2021/11/05 02:12:05;;;;;;;6.07;4.85;;;6.90;99.90;;;;;;5054808;28;20606;-73
2021/11/05 02:14:31;;;;;;;4.47;4.05;;;6.90;99.90;;;;;;5054864;28;20017;-72
2021/11/05 02:16:59;;;;;;;8.82;4.07;;;6.90;99.90;;;;;;5072229;28;20126;-74
2021/11/05 02:19:27;;;;;;;4.57;3.60;;;6.90;99.90;;;;;;5073000;28;20105;-72
2021/11/05 02:21:54;;;;;;;5.32;3.72;;;6.90;99.90;;;;;;5054766;28;20024;-73
2021/11/05 02:24:22;;;;;;;4.50;3.63;;;6.90;99.90;;;;;;5072526;28;20453;-73
2021/11/05 02:26:50;;;;;;;5.45;3.85;;;6.90;99.90;;;;;;5054521;28;20024;-74
2021/11/05 02:29:16;;;;;;;5.28;3.42;;;6.90;99.90;;;;;;5072480;28;20081;-74
2021/11/05 02:31:43;;;;;;;4.10;3.30;;;6.90;99.90;;;;;;5054333;28;20545;-73
2021/11/05 02:34:09;;;;;;;6.10;3.65;;;6.90;99.90;;;;;;5054448;28;20021;-73
2021/11/05 02:36:34;;;;;;;5.05;3.65;;;6.90;99.90;;;;;;5054478;28;20081;-73
2021/11/05 02:39:01;;;;;;;4.03;3.45;;;7.00;99.90;;;;;;5072000;28;20031;-73
2021/11/05 02:41:27;;;;;;;3.65;3.30;;;6.90;99.90;;;;;;5072290;28;20412;-73
2021/11/05 02:43:53;;;;;;;3.78;3.28;;;6.90;99.90;;;;;;5054251;28;20039;-72
2021/11/05 02:46:19;;;;;;;4.25;3.17;;;6.90;99.90;;;;;;5071994;28;20020;-73
2021/11/05 02:48:45;;;;;;;7.28;3.30;;;6.90;99.90;;;;;;5072135;28;20024;-73
2021/11/05 02:51:11;;;;;;;3.92;2.97;;;6.80;99.90;;;;;;5072186;28;20048;-73
2021/11/05 02:53:38;;;;;;;3.85;2.95;;;6.90;99.90;;;;;;5072153;28;20079;-73
2021/11/05 02:56:05;;;;;;;4.57;2.95;;;6.90;99.90;;;;;;5053907;28;20066;-73
2021/11/05 02:58:31;;;;;;;4.10;3.28;;;6.80;99.90;;;;;;5070960;28;20074;-74
2021/11/05 03:00:59;;;;;;;4.10;2.70;;;6.80;99.90;;;;;;5053947;28;20480;-73
2021/11/05 03:03:25;;;;;;;2.72;2.53;;;6.80;99.90;;;;;;5072454;28;20431;-72
2021/11/05 03:05:51;;;;;;;4.95;2.97;;;6.80;99.90;;;;;;5071851;28;20086;-74
2021/11/05 03:08:17;;;;;;;3.15;2.58;;;6.90;99.90;;;;;;5071822;28;20028;-72
2021/11/05 03:10:42;;;;;;;2.85;2.20;;;6.90;99.90;;;;;;5072067;28;20020;-72
2021/11/05 03:13:08;;;;;;;3.42;2.42;;;6.90;99.90;;;;;;5053746;28;20033;-73
2021/11/05 03:15:33;;;;;;;3.35;2.65;;;6.90;99.90;;;;;;5072176;28;20020;-73
2021/11/05 03:18:00;;;;;;;5.60;2.92;;;6.90;99.90;;;;;;5053740;28;20020;-73
2021/11/05 03:20:26;;;;;;;4.32;2.22;;;6.90;99.90;;;;;;5071907;28;20124;-72
2021/11/05 03:22:52;;;;;;;3.30;2.30;;;6.90;99.90;;;;;;5071936;28;20067;-72
2021/11/05 03:25:18;;;;;;;2.80;2.00;;;6.90;99.90;;;;;;5071835;28;20457;-72
2021/11/05 03:27:44;;;;;;;4.40;2.30;;;6.90;99.90;;;;;;5071769;28;20029;-72
2021/11/05 03:30:11;;;;;;;2.17;1.92;;;6.90;99.90;;;;;;5071833;28;20100;-72
2021/11/05 03:32:38;;;;;;;2.47;2.00;;;6.90;99.90;;;;;;5071614;28;20097;-72
2021/11/05 03:35:05;;;;;;;3.22;2.03;;;6.90;99.90;;;;;;5071547;28;20102;-72
2021/11/05 03:37:31;;;;;;;4.85;1.90;;;6.90;99.90;;;;;;5071671;28;20032;-73
2021/11/05 03:39:57;;;;;;;2.47;1.80;;;6.90;99.90;;;;;;5071621;28;20024;-73
2021/11/05 03:42:22;;;;;;;6.47;2.20;;;6.90;99.90;;;;;;5053728;28;20431;-72
2021/11/05 03:44:48;;;;;;;3.58;1.98;;;6.90;99.90;;;;;;5053647;28;20039;-72
2021/11/05 03:47:13;;;;;;;2.90;2.00;;;6.90;99.90;;;;;;5071852;28;20021;-73
2021/11/05 03:49:39;;;;;;;3.05;1.70;;;6.90;99.90;;;;;;5071437;28;20477;-74
2021/11/05 03:52:05;;;;;;;4.15;1.65;;;6.90;99.90;;;;;;5071479;28;20528;-73
2021/11/05 03:54:30;;;;;;;2.50;1.65;;;7.00;99.90;;;;;;5071600;28;20046;-73
2021/11/05 03:56:56;;;;;;;2.63;1.70;;;7.00;99.90;;;;;;5053290;28;20374;-73
2021/11/05 03:59:21;;;;;;;2.35;1.38;;;7.00;99.90;;;;;;5053706;28;20461;-73
2021/11/05 04:01:47;;;;;;;2.03;1.50;;;7.00;99.90;;;;;;5071325;28;20427;-72
2021/11/05 04:04:13;;;;;;;1.70;1.60;;;7.00;99.90;;;;;;5071322;28;20036;-72
2021/11/05 04:06:39;;;;;;;1.40;1.30;;;7.00;99.90;;;;;;5053385;28;20536;-73
2021/11/05 04:09:05;;;;;;;2.45;2.25;;;7.00;99.90;;;;;;5073112;28;20170;-73
2021/11/05 04:11:31;;;;;;;1.30;1.20;;;7.00;99.90;;;;;;5075225;28;20032;-73
2021/11/05 04:13:57;;;;;;;1.77;1.30;;;7.10;99.90;;;;;;5057016;28;20036;-73
2021/11/05 04:16:23;;;;;;;1.35;1.20;;;7.10;99.90;;;;;;5075001;28;20023;-73
2021/11/05 04:18:49;;;;;;;1.80;1.33;;;7.10;99.90;;;;;;5075045;28;20024;-72
2021/11/05 04:21:15;;;;;;;1.73;1.63;;;7.10;99.90;;;;;;5074869;28;20067;-73
2021/11/05 04:23:41;;;;;;;2.53;1.40;;;7.00;99.90;;;;;;5074695;28;20469;-74
2021/11/05 04:26:07;;;;;;;1.90;1.80;;;7.00;99.90;;;;;;5056870;28;20488;-73
2021/11/05 04:28:33;;;;;;;2.45;2.20;;;7.00;99.90;;;;;;5074873;28;20028;-74
2021/11/05 04:30:59;;;;;;;3.95;1.70;;;7.00;99.90;;;;;;5056688;28;20021;-74
2021/11/05 04:33:25;;;;;;;3.08;1.60;;;7.00;99.90;;;;;;5057058;28;20510;-72
2021/11/05 04:35:50;;;;;;;2.65;1.67;;;6.90;99.90;;;;;;5056809;28;20103;-72
2021/11/05 04:38:16;;;;;;;1.65;1.35;;;6.90;99.90;;;;;;5056305;28;20043;-73
2021/11/05 04:40:43;;;;;;;1.88;1.58;;;6.90;99.90;;;;;;5074552;28;20044;-72
2021/11/05 04:43:09;;;;;;;1.75;1.40;;;6.90;99.90;;;;;;5056604;28;20131;-72
2021/11/05 04:45:35;;;;;;;2.50;1.83;;;6.80;99.90;;;;;;5074392;28;20017;-73
2021/11/05 04:48:01;;;;;;;2.42;1.90;;;6.80;99.90;;;;;;5074195;28;20108;-73
2021/11/05 04:50:26;;;;;;;2.75;1.40;;;6.70;99.90;;;;;;5074612;28;20060;-73
2021/11/05 04:52:52;;;;;;;2.00;1.40;;;6.70;99.90;;;;;;5074310;28;20043;-72
2021/11/05 04:55:19;;;;;;;2.78;1.50;;;6.70;99.90;;;;;;5074290;28;20020;-73
2021/11/05 04:57:46;;;;;;;2.15;1.80;;;6.70;99.90;;;;;;5056078;28;20016;-72
2021/11/05 05:00:14;;;;;;;1.85;1.75;;;6.60;99.90;;;;;;5074102;28;20035;-73
2021/11/05 05:02:39;;;;;;;2.33;1.70;;;6.60;99.90;;;;;;5056154;28;20121;-72
2021/11/05 05:05:06;;;;;;;2.10;1.90;;;6.60;99.90;;;;;;5074001;28;20530;-72
2021/11/05 05:07:32;;;;;;;2.40;2.05;;;6.60;99.90;;;;;;5056182;28;20033;-73
2021/11/05 05:09:57;;;;;;;2.85;2.10;;;6.50;99.90;;;;;;5073999;28;20465;-72
2021/11/05 05:12:23;;;;;;;3.15;2.30;;;6.50;99.90;;;;;;5073963;28;20349;-72
2021/11/05 05:14:48;;;;;;;3.13;2.10;;;6.50;99.90;;;;;;5056100;28;20464;-73
2021/11/05 05:17:14;;;;;;;2.42;1.73;;;6.50;99.90;;;;;;5073822;28;20087;-72
2021/11/05 05:19:39;;;;;;;3.53;2.08;;;6.50;99.90;;;;;;5054870;28;20469;-72
2021/11/05 05:22:07;;;;;;;2.83;2.40;;;6.50;99.90;;;;;;5073792;28;20084;-72
2021/11/05 05:24:32;;;;;;;3.20;2.40;;;6.50;99.90;;;;;;5073875;28;20056;-73
2021/11/05 05:26:58;;;;;;;4.57;2.42;;;6.40;99.90;;;;;;5073304;28;20048;-72
2021/11/05 05:29:23;;;;;;;4.30;2.35;;;6.40;99.90;;;;;;5073981;28;20028;-72
2021/11/05 05:31:49;;;;;;;2.83;2.30;;;6.40;99.90;;;;;;5073617;28;20095;-72
2021/11/05 05:34:15;;;;;;;3.95;3.28;;;6.40;99.90;;;;;;5073462;28;20515;-72
2021/11/05 05:36:40;;;;;;;3.67;2.80;;;6.40;99.90;;;;;;5073513;28;20039;-71
2021/11/05 05:39:06;;;;;;;2.97;2.67;;;6.30;99.90;;;;;;5055676;28;20468;-71
2021/11/05 05:41:32;;;;;;;3.10;2.80;;;6.30;99.90;;;;;;5073442;28;20064;-72
2021/11/05 05:43:58;;;;;;;2.75;2.50;;;6.30;99.90;;;;;;5073191;28;20036;-73
2021/11/05 05:46:23;;;;;;;3.45;3.15;;;6.30;99.90;;;;;;5073667;28;20400;-72
2021/11/05 05:48:49;;;;;;;4.22;3.17;;;6.30;99.90;;;;;;5072961;28;20032;-73
2021/11/05 05:51:14;;;;;;;4.63;3.22;;;6.30;99.90;;;;;;5073246;28;20036;-73
2021/11/05 05:53:40;;;;;;;4.22;3.70;;;6.20;99.90;;;;;;5073321;28;20028;-72
2021/11/05 05:56:06;;;;;;;3.25;2.95;;;6.20;99.90;;;;;;5072830;28;20021;-73
2021/11/05 05:58:32;;;;;;;4.97;3.60;;;6.30;99.90;;;;;;5073174;28;20024;-74
2021/11/05 06:00:58;;;;;;;3.90;3.50;;;6.30;99.90;;;;;;5072685;28;20060;-72
2021/11/05 06:03:23;;;;;;;3.58;3.28;;;6.30;99.90;;;;;;5073013;28;20063;-72
2021/11/05 06:05:49;;;;;;;4.15;2.95;;;6.30;99.90;;;;;;5055055;28;20017;-72
2021/11/05 06:08:14;;;;;;;4.30;3.67;;;6.20;99.90;;;;;;5072507;28;20032;-74
2021/11/05 06:10:40;;;;;;;5.07;3.70;;;6.20;99.90;;;;;;5073118;28;20031;-72
2021/11/05 06:13:06;;;;;;;3.90;3.50;;;6.20;99.90;;;;;;5072825;28;20027;-72
2021/11/05 06:15:31;;;;;;;3.80;3.42;;;6.20;99.90;;;;;;5072433;28;20067;-73
2021/11/05 06:17:57;;;;;;;3.50;3.20;;;6.20;99.90;;;;;;5054571;28;20515;-72
2021/11/05 06:20:22;;;;;;;3.47;3.17;;;6.20;99.90;;;;;;5072957;28;20036;-72
2021/11/05 06:22:48;;;;;;;3.33;3.03;;;6.20;99.90;;;;;;5054801;28;20108;-72
2021/11/05 06:25:14;;;;;;;3.80;3.50;;;6.10;99.90;;;;;;5054609;28;20475;-72
2021/11/05 06:27:39;;;;;;;3.28;2.97;;;6.20;99.90;;;;;;5072205;28;20039;-73
2021/11/05 06:30:07;;;;;;;2.97;2.72;;;6.20;99.90;;;;;;5054480;28;20025;-73
2021/11/05 06:32:33;;;;;;;3.60;3.30;;;6.20;99.90;;;;;;5054521;28;20017;-72
2021/11/05 06:34:59;;;;;;;5.05;3.30;;;6.20;99.90;;;;;;5072213;28;20154;-72
2021/11/05 06:37:25;;;;;;;3.75;3.45;;;6.10;99.90;;;;;;5054674;28;20111;-73
2021/11/05 06:39:51;;;;;;;4.18;3.78;;;6.00;99.90;;;;;;5072681;28;20025;-72
2021/11/05 06:42:21;;;;;;;3.85;3.53;;;6.00;99.90;;;;;;5072396;28;20044;-72
2021/11/05 06:44:51;;;;;;;3.55;3.25;;;5.90;99.90;;;;;;5070994;28;20028;-73
2021/11/05 06:47:17;;;;;;;3.40;3.10;;;6.00;99.90;;;;;;5048897;28;20380;-73
2021/11/05 06:49:43;;;;;;;3.58;3.25;;;6.00;99.90;;;;;;5054209;28;20028;-73
2021/11/05 06:52:09;;;;;;;3.33;3.03;;;6.00;99.90;;;;;;5055720;28;20028;-72
2021/11/05 06:54:38;;;;;;;3.30;3.00;;;6.00;99.90;;;;;;5052356;28;20110;-72
2021/11/05 06:57:04;;;;;;;3.88;3.20;;;6.00;99.90;;;;;;5052934;28;20035;-72
2021/11/05 06:59:30;;;;;;;9.43;3.80;;;6.10;99.90;;;;;;5063341;28;20028;-73
2021/11/05 07:01:55;;;;;;;4.43;4.03;;;6.00;99.90;;;;;;5051786;28;20021;-73
2021/11/05 07:04:21;;;;;;;4.90;3.70;;;6.00;99.90;;;;;;5050591;28;20044;-72
2021/11/05 07:06:47;;;;;;;4.05;3.75;;;6.00;99.90;;;;;;5072040;28;20012;-74
2021/11/05 07:09:14;;;;;;;3.50;3.20;;;6.00;99.90;;;;;;5071087;28;20032;-72
2021/11/05 07:11:40;;;;;;;3.72;3.42;;;6.00;99.90;;;;;;5051747;28;20055;-72
2021/11/05 07:14:05;;;;;;;3.97;3.58;;;6.10;99.90;;;;;;5051951;28;20056;-73
2021/11/05 07:16:33;;;;;;;4.18;3.88;;;6.10;99.90;;;;;;5034311;28;20484;-75
2021/11/05 07:18:59;;;;;;;5.22;3.13;;;6.10;99.90;;;;;;5033585;28;20053;-72
2021/11/05 07:21:24;;;;;;;3.30;3.00;;;6.20;99.90;;;;;;5052012;28;20452;-73
2021/11/05 07:23:50;;;;;;;4.93;3.40;;;6.20;99.90;;;;;;5046753;28;20409;-72
2021/11/05 07:26:17;;;;;;;3.72;3.30;;;6.20;99.90;;;;;;5071634;28;20017;-73
2021/11/05 07:28:43;;;;;;;6.30;3.67;;;6.30;99.90;;;;;;5053591;28;20146;-72
2021/11/05 07:31:09;;;;;;;4.30;3.83;;;6.30;99.90;;;;;;5071939;28;20021;-72
2021/11/05 07:33:34;;;;;;;4.10;3.70;;;6.30;99.90;;;;;;5053676;28;20020;-73
2021/11/05 07:36:00;;;;;;;3.65;3.30;;;6.40;99.90;;;;;;5060874;28;20532;-72
2021/11/05 07:38:26;;;;;;;4.18;3.55;;;6.40;99.90;;;;;;5052199;28;20068;-73
2021/11/05 07:40:52;;;;;;;8.05;3.83;;;6.40;99.90;;;;;;5049965;28;20068;-73
2021/11/05 07:43:17;;;;;;;4.03;3.60;;;6.50;99.90;;;;;;5072221;28;20029;-72
2021/11/05 07:45:43;;;;;;;4.93;4.10;;;6.40;99.90;;;;;;5050421;28;20009;-73
2021/11/05 07:48:09;;;;;;;4.03;3.58;;;6.50;99.90;;;;;;5067383;28;20078;-73
2021/11/05 07:50:34;;;;;;;4.45;4.05;;;6.50;99.90;;;;;;5069429;28;20025;-72
2021/11/05 07:53:04;;;;;;;4.00;3.60;;;6.60;99.90;;;;;;5075291;28;20484;-73
2021/11/05 07:55:30;;;;;;;4.20;3.40;;;6.60;99.90;;;;;;5057530;28;20028;-72
2021/11/05 07:57:56;;;;;;;4.15;3.75;;;6.70;99.90;;;;;;5040155;28;20552;-73
2021/11/05 08:00:22;;;;;;;4.05;3.75;;;6.80;99.90;;;;;;5055430;28;20033;-73
2021/11/05 08:02:48;;;;;;;4.47;3.92;;;6.90;99.90;;;;;;5037669;28;20074;-73
2021/11/05 08:05:14;;;;;;;6.30;4.60;;;6.90;99.90;;;;;;5037393;28;20025;-73
2021/11/05 08:07:40;;;;;;;6.20;4.82;;;6.90;99.90;;;;;;5037125;28;20404;-73
2021/11/05 08:10:07;;;;;;;5.00;4.50;;;6.90;99.90;;;;;;5070459;28;20032;-74
2021/11/05 08:12:33;;;;;;;4.78;4.28;;;6.90;99.90;;;;;;5057439;28;20024;-74
2021/11/05 08:14:59;;;;;;;5.32;4.82;;;6.90;99.90;;;;;;5074764;28;20069;-73
2021/11/05 08:17:26;;;;;;;5.05;4.28;;;6.90;99.90;;;;;;5069866;28;20523;-74
2021/11/05 08:19:51;;;;;;;5.65;4.70;;;6.90;99.90;;;;;;5037131;28;20502;-73
2021/11/05 08:22:19;;;;;;;6.03;4.03;;;6.90;99.90;;;;;;5044144;28;20170;-72
2021/11/05 08:24:45;;;;;;;5.30;4.70;;;7.00;99.90;;;;;;5054818;28;20029;-73
2021/11/05 08:27:13;;;;;;;4.78;4.28;;;7.00;99.90;;;;;;5037255;28;20032;-72
2021/11/05 08:29:38;;;;;;;5.07;4.57;;;7.00;99.90;;;;;;5072191;28;20039;-73
2021/11/05 08:32:04;;;;;;;5.78;4.80;;;7.00;99.90;;;;;;5056835;28;20016;-72
2021/11/05 08:34:30;;;;;;;6.07;5.07;;;7.00;99.90;;;;;;5056738;28;20029;-73
2021/11/05 08:36:56;;;;;;;6.22;5.13;;;7.00;99.90;;;;;;5056416;28;20027;-74
2021/11/05 08:39:21;;;;;;;5.75;4.95;;;7.00;99.90;;;;;;5056974;28;20119;-74
2021/11/05 08:41:47;;;;;;;5.82;4.80;;;7.00;99.90;;;;;;5048918;28;20095;-75
2021/11/05 08:44:13;;;;;;;6.55;5.85;;;7.00;99.90;;;;;;5054356;28;20037;-75
2021/11/05 08:46:38;;;;;;;7.30;6.57;;;7.00;99.90;;;;;;5054570;28;20025;-74
2021/11/05 08:49:11;;;;;;;12.77;7.85;;;7.00;99.90;;;;;;5064067;28;20098;-74
2021/11/05 08:51:40;;;;;;;8.95;6.97;;;7.00;99.90;;;;;;5053146;28;20031;-74
2021/11/05 08:54:06;;;;;;;7.80;7.07;;;7.10;99.90;;;;;;5050869;28;20032;-71
2021/11/05 08:56:31;;;;;;;9.65;7.63;;;7.20;99.90;;;;;;5059444;28;20066;-73
2021/11/05 08:58:57;;;;;;;7.78;6.97;;;7.40;99.90;;;;;;5069932;28;20025;-72
2021/11/05 09:01:22;;;;;;;7.57;6.85;;;7.50;99.90;;;;;;5054394;28;20032;-72
2021/11/05 09:03:48;;;;;;;6.93;6.20;;;7.50;99.90;;;;;;5072163;28;20027;-76
2021/11/05 09:06:13;;;;;;;6.57;5.80;;;7.50;99.90;;;;;;5055943;28;20017;-76
2021/11/05 09:08:39;;;;;;;7.63;6.00;;;7.50;99.90;;;;;;5055350;28;20013;-76
2021/11/05 09:11:06;;;;;;;6.53;5.57;;;7.50;99.90;;;;;;5055472;28;20362;-76
2021/11/05 09:13:35;;;;;;;6.20;4.85;;;7.40;99.90;;;;;;5056226;28;20064;-74
2021/11/05 09:16:02;;;;;;;5.70;5.18;;;7.50;99.90;;;;;;5073351;28;20113;-73
2021/11/05 09:18:28;;;;;;;7.15;5.18;;;7.50;99.90;;;;;;5073164;28;20029;-75
2021/11/05 09:20:54;;;;;;;5.97;5.07;;;7.40;99.90;;;;;;5055169;28;20031;-75
2021/11/05 09:23:23;;;;;;;7.30;5.00;;;7.40;99.90;;;;;;5052669;28;20381;-77
2021/11/05 09:25:49;;;;;;;6.13;5.43;;;7.40;99.90;;;;;;5073560;28;20108;-81
2021/11/05 09:28:15;;;;;;;8.18;5.10;;;7.50;99.90;;;;;;5055136;28;20437;-76
2021/11/05 09:30:40;;;;;;;6.97;4.63;;;7.50;99.90;;;;;;5073917;28;20022;-76
2021/11/05 09:33:06;;;;;;;5.47;4.60;;;7.50;99.90;;;;;;5055270;28;20078;-75
2021/11/05 09:35:31;;;;;;;5.10;4.43;;;7.60;99.90;;;;;;5072225;28;20132;-74
2021/11/05 09:37:57;;;;;;;4.18;3.42;;;7.60;99.90;;;;;;5071922;28;20028;-73
2021/11/05 09:40:25;;;;;;;5.13;3.72;;;7.60;99.90;;;;;;5072513;28;20028;-74
2021/11/05 09:42:53;;;;;;;7.78;5.05;;;7.70;99.90;;;;;;5071392;28;20535;-74
2021/11/05 09:45:22;;;;;;;5.28;3.65;;;7.80;99.90;;;;;;5072923;28;20021;-74
2021/11/05 09:47:48;;;;;;;5.18;3.85;;;7.90;99.90;;;;;;5055487;28;20451;-73
2021/11/05 09:50:17;;;;;;;5.15;3.50;;;8.00;99.90;;;;;;5073006;28;20017;-74
2021/11/05 09:52:46;;;;;;;6.03;4.10;;;8.20;99.90;;;;;;5071825;28;20016;-74
2021/11/05 09:55:12;;;;;;;5.03;3.78;;;8.40;99.90;;;;;;5071498;28;20017;-74
2021/11/05 09:57:38;;;;;;;3.90;3.25;;;8.50;99.90;;;;;;5042321;28;20377;-75
2021/11/05 10:00:07;;;;;;;3.25;2.95;;;8.60;99.90;;;;;;5068937;28;20024;-76
2021/11/05 10:02:32;;;;;;;4.90;3.90;;;8.70;99.90;;;;;;5050713;28;20105;-77
2021/11/05 10:05:00;;;;;;;3.90;3.50;;;8.80;99.90;;;;;;5047307;28;20111;-74
2021/11/05 10:07:26;;;;;;;4.03;3.10;;;8.90;99.90;;;;;;5070693;28;20021;-75
2021/11/05 10:09:54;;;;;;;4.82;3.90;;;9.00;99.90;;;;;;5072399;28;20028;-74
2021/11/05 10:12:25;;;;;;;4.78;3.88;;;9.10;99.90;;;;;;5072670;28;20016;-74
2021/11/05 10:15:00;;;;;;;4.75;3.72;;;9.10;99.90;;;;;;5054446;28;20020;-74
2021/11/05 10:17:28;;;;;;;3.78;3.38;;;9.20;99.90;;;;;;5072679;28;20457;-73
2021/11/05 10:19:56;;;;;;;4.15;3.33;;;9.10;99.90;;;;;;5052587;28;20024;-73
2021/11/05 10:22:47;;;;;;;5.18;3.20;;;9.10;99.90;;;;;;5054630;28;20384;-74
2021/11/05 10:25:32;;;;;;;5.53;3.30;;;9.10;99.90;;;;;;5072457;28;20054;-73
2021/11/05 10:28:25;;;;;;;4.97;3.53;;;9.20;99.90;;;;;;5071780;28;20103;-73
2021/11/05 10:31:10;;;;;;;3.10;2.70;;;9.20;99.90;;;;;;5054587;28;20476;-75
2021/11/05 10:33:48;;;;;;;3.80;3.35;;;9.20;99.90;;;;;;5054452;28;20369;-73
2021/11/05 10:36:20;;;;;;;6.05;3.17;;;9.30;99.90;;;;;;5051391;28;20086;-74
2021/11/05 10:38:50;;;;;;;4.20;3.63;;;9.30;99.90;;;;;;5053397;28;20029;-76
2021/11/05 10:41:19;;;;;;;5.22;3.33;;;9.30;99.90;;;;;;5072060;28;20083;-74
2021/11/05 10:43:48;;;;;;;4.88;3.28;;;9.30;99.90;;;;;;5069060;28;20033;-74
2021/11/05 10:46:26;;;;;;;4.25;3.42;;;9.20;99.90;;;;;;5053276;28;20029;-76
2021/11/05 10:48:55;;;;;;;5.40;3.53;;;9.30;99.90;;;;;;5053600;28;20052;-74
2021/11/05 10:51:23;;;;;;;4.90;3.08;;;9.30;99.90;;;;;;5053743;28;20016;-74
2021/11/05 10:53:49;;;;;;;5.25;3.05;;;9.30;99.90;;;;;;5071965;28;20046;-74
2021/11/05 10:56:16;;;;;;;4.53;3.85;;;9.30;99.90;;;;;;5071762;28;20024;-75
2021/11/05 10:59:02;;;;;;;7.63;3.95;;;9.40;99.90;;;;;;5069899;28;20040;-75
2021/11/05 11:01:34;;;;;;;6.15;3.28;;;9.60;99.90;;;;;;5070254;28;20390;-74
2021/11/05 11:04:07;;;;;;;3.65;3.00;;;9.70;99.90;;;;;;5071521;28;20028;-76
2021/11/05 11:06:38;;;;;;;6.90;3.97;;;9.90;99.90;;;;;;5047773;28;20028;-75
2021/11/05 11:09:07;;;;;;;3.58;2.75;;;10.10;99.90;;;;;;5052617;28;20028;-75
2021/11/05 11:11:44;;;;;;;5.70;3.60;;;10.20;99.90;;;;;;5073934;28;20012;-75
2021/11/05 11:14:18;;;;;;;7.70;2.55;;;10.50;99.90;;;;;;5071248;28;20033;-75
2021/11/05 11:16:48;;;;;;;4.70;2.67;;;10.70;99.90;;;;;;5076712;28;20018;-75
2021/11/05 11:19:16;;;;;;;4.75;2.88;;;10.90;99.90;;;;;;5070517;28;20028;-74
2021/11/05 11:22:02;;;;;;;3.38;2.53;;;11.10;99.90;;;;;;5055062;28;20027;-76
2021/11/05 11:24:48;;;;;;;5.97;2.58;;;11.30;99.90;;;;;;5053275;28;20040;-75
2021/11/05 11:27:13;;;;;;;4.47;2.45;;;11.40;99.90;;;;;;5052560;28;20029;-74
2021/11/05 11:29:39;;;;;;;5.80;2.28;;;11.50;99.90;;;;;;5053612;28;20051;-74
2021/11/05 11:32:05;;;;;;;4.18;2.40;;;11.50;99.90;;;;;;5053673;28;20043;-75
2021/11/05 11:34:31;;;;;;;5.43;2.03;;;11.50;99.90;;;;;;5042555;28;20029;-75
2021/11/05 11:37:00;;;;;;;3.28;1.77;;;11.50;99.90;;;;;;5070865;28;20065;-75
2021/11/05 11:39:29;;;;;;;3.75;1.67;;;11.50;99.90;;;;;;5052898;28;20491;-77
2021/11/05 11:41:59;;;;;;;2.35;1.55;;;11.60;99.90;;;;;;5053252;28;20043;-77
2021/11/05 11:44:26;;;;;;;4.53;1.52;;;11.70;99.90;;;;;;5052120;28;20043;-74
2021/11/05 11:46:53;;;;;;;5.18;1.50;;;11.80;99.90;;;;;;5071025;28;20029;-74
2021/11/05 11:49:39;;;;;;;6.28;1.98;;;11.80;99.90;;;;;;5069312;28;20029;-76
2021/11/05 11:52:14;;;;;;;2.72;1.45;;;11.80;99.90;;;;;;5025244;28;20029;-75
2021/11/05 11:54:43;;;;;;;3.95;1.50;;;11.80;99.90;;;;;;5063058;28;20025;-77
2021/11/05 11:57:16;;;;;;;2.97;1.55;;;11.70;99.90;;;;;;5053349;28;20049;-77
2021/11/05 11:59:44;;;;;;;4.90;1.38;;;11.70;99.90;;;;;;5070562;28;20089;-78
2021/11/05 12:02:33;;;;;;;4.90;1.15;;;11.60;99.90;;;;;;5055017;28;20044;-75
2021/11/05 12:05:00;;;;;;;4.03;1.50;;;11.60;99.90;;;;;;5052978;28;20033;-75
2021/11/05 12:07:26;;;;;;;4.63;1.58;;;11.60;99.90;;;;;;5051548;28;20530;-77
2021/11/05 12:09:51;;;;;;;1.75;1.17;;;11.60;99.90;;;;;;5070958;28;20025;-78
2021/11/05 12:12:20;;;;;;;3.97;1.88;;;11.70;99.90;;;;;;5053283;28;20039;-78
2021/11/05 12:14:58;;;;;;;7.95;1.67;;;11.70;99.90;;;;;;5052206;28;20111;-77
2021/11/05 12:17:24;;;;;;;4.10;1.80;;;11.80;99.90;;;;;;5071009;28;20024;-76
2021/11/05 12:19:50;;;;;;;3.90;1.70;;;11.90;99.90;;;;;;5070424;28;20368;-75
2021/11/05 12:22:16;;;;;;;2.03;1.30;;;11.90;99.90;;;;;;5052529;28;20493;-74
2021/11/05 12:24:47;;;;;;;3.85;1.48;;;12.00;99.90;;;;;;5053842;28;20102;-75
2021/11/05 12:27:28;;;;;;;4.53;1.48;;;12.00;99.90;;;;;;5052396;28;20016;-76
2021/11/05 12:29:57;;;;;;;3.03;1.30;;;12.00;99.90;;;;;;5069192;28;20029;-77
2021/11/05 12:32:26;;;;;;;4.40;2.20;;;12.10;99.90;;;;;;5072584;28;20029;-77
2021/11/05 12:35:17;;;;;;;3.97;1.88;;;12.10;99.90;;;;;;5056489;28;20506;-75
2021/11/05 12:38:09;;;;;;;6.28;2.03;;;12.10;99.90;;;;;;5036046;28;20373;-74
2021/11/05 12:40:42;;;;;;;5.32;1.85;;;12.10;99.90;;;;;;5054459;28;20045;-74
2021/11/05 12:43:27;;;;;;;3.28;1.15;;;12.20;99.90;;;;;;5053621;28;20029;-74
2021/11/05 12:45:58;;;;;;;7.05;1.48;;;12.20;99.90;;;;;;5050687;28;20024;-75
2021/11/05 12:48:37;;;;;;;2.10;1.00;;;12.20;99.90;;;;;;5074331;28;20461;-74
2021/11/05 12:51:05;;;;;;;4.68;1.67;;;12.10;99.90;;;;;;5072547;28;20107;-76
2021/11/05 12:53:31;;;;;;;6.32;1.88;;;12.10;99.90;;;;;;5054711;28;20032;-76
2021/11/05 12:55:56;;;;;;;2.50;1.38;;;12.10;99.90;;;;;;5057743;28;20377;-73